This is the latest recevied weather packets stored in our database for station/object GW1599. If no packets are shown the sender has not sent any weather packets the latest 10 day(s).
| Time | Temp. | Humidity | Pressure | Rain* | Wind** | Luminosity | Snow |
|---|---|---|---|---|---|---|---|
| 1777562130 | 13.33° C | 67% | 1016.5 hPa | 0 mm | - | - | - |
| 1777559257 | 12.78° C | 71% | 1016.2 hPa | 0 mm | - | - | - |
| 1777558875 | 12.22° C | 74% | 1016.2 hPa | 0 mm | - | - | - |
| 1777558526 | 11.67° C | 75% | 1016.2 hPa | 0 mm | - | - | - |
| 1777557798 | 12.22° C | 75% | 1015.9 hPa | 0 mm | - | - | - |
| 1777551683 | 8.89° C | 96% | 1014.9 hPa | 0 mm | - | - | - |
| 1777549896 | 7.78° C | 96% | 1014.5 hPa | 0 mm | - | - | - |
| 1777548462 | 7.22° C | 95% | 1014.2 hPa | 0 mm | - | - | - |
| 1777545935 | 7.78° C | 95% | 1013.5 hPa | 0 mm | - | - | - |
| 1777545576 | 7.78° C | 95% | 1013.2 hPa | 0 mm | - | - | - |
| 1777542702 | 8.89° C | 95% | 1012.8 hPa | 0 mm | - | - | - |
| 1777542345 | 8.89° C | 95% | 1012.8 hPa | 0 mm | - | - | - |
| 1777540879 | 9.44° C | 95% | 1012.8 hPa | 0 mm | - | - | - |
| 1777540534 | 9.44° C | 95% | 1012.8 hPa | 0 mm | - | - | - |
| 1777538721 | 10° C | 95% | 1013.2 hPa | 0 mm | - | - | - |
| 1777536207 | 10° C | 96% | 1013.2 hPa | 0 mm | - | - | - |
| 1777534412 | 10.56° C | 95% | 1012.8 hPa | 0 mm | - | - | - |
| 1777531177 | 11.11° C | 96% | 1012.8 hPa | 0 mm | - | - | - |
| 1777529709 | 11.67° C | 96% | 1013.2 hPa | 0 mm | - | - | - |
| 1777527575 | 12.22° C | 96% | 1013.2 hPa | 0 mm | - | - | - |
| 1777525066 | 12.22° C | 96% | 1012.8 hPa | 0 mm | - | - | - |
| 1777523968 | 12.78° C | 96% | 1012.8 hPa | 0 mm | - | - | - |
| 1777522526 | 12.78° C | 96% | 1012.8 hPa | 0 mm | - | - | - |
| 1777522182 | 12.78° C | 96% | 1012.8 hPa | 0 mm | - | - | - |
| 1777521107 | 12.78° C | 96% | 1012.8 hPa | 14.99 mm | - | - | - |
* Rain since midnight (hover to see other rain measurements)
** Current wind speed in m/s (hover to see current wind gust speed)